Terminal Aerodrome Forecast
Issued by NWS

Home | Current Version | Previous Version | Text Only | Print | Product List | Glossary On
Versions: 1 2 3 4 5 6 7 8 9 10 11 12 13 14 15
000
FTUS42 KMLB 241125
TAFLEE
TAF
KLEE 241125Z 2412/2512 16006KT P6SM SCT100 SCT250
     FM241400 19004KT P6SM SCT030 SCT100 SCT250
     FM241800 23005KT P6SM VCTS SCT040CB BKN100
     FM250200 VRB05KT P6SM VCSH SCT040 BKN080 BKN120=

USA.gov is the U.S. government's official web portal to all federal, state and local government web resources and services.